Jewell, Georgia
Current Conditions -  °F | °C
As of 7:15 PM on Thursday 27 Nov 2014 (Local Time) from KHQU Reporting Station
Clear Clear  
Wind Chill: 39°   Ceiling: Unl
Heat Index: 44°   Visibility: 10mi
Dew Point: 33°   Wind: 10mph
Humidity: 65%   Direction: 290°WNW
Pressure: 30.34"   Gusts: NA
Location:  33.3°N, 82.77°W
Report Text: KHQU 280015Z AUTO 29009KT 10SM CLR 07/01 A3034 RMK AO1 T00680006
Loading
Personal Weather Stations






























Interactive Weather Map New forecast layout! Learn more

10-Day Weather Forecast

Advertisements
Track Severe Weather on mobile